Time;durP1;ratioP1;P1;durP2;ratioP2;P2;SDS_P1;SDS_P2;PMS_P1;PMS_P2;Temp;Humidity;BMP_temperature;BMP_pressure;BME280_temperature;BME280_humidity;BME280_pressure;Samples;Min_cycle;Max_cycle;Signal;HPM_P1;HPM_P2
2023/01/20 00:01:17;;;;;;;26.50;16.40;;;;;;;-0.64;99.86;98802.81;449621;1252;197641;-66
2023/01/20 00:11:23;;;;;;;21.70;15.20;;;;;;;-0.74;99.49;98810.69;446701;1251;143033;-66
2023/01/20 00:21:30;;;;;;;21.80;13.50;;;;;;;-0.75;99.64;98807.29;449502;1251;143223;-66
2023/01/20 00:31:36;;;;;;;19.50;12.00;;;;;;;-0.77;99.27;98800.80;448190;1251;144230;-66
2023/01/20 00:41:41;;;;;;;16.90;12.30;;;;;;;-0.90;98.79;98822.33;447598;1250;144835;-67
2023/01/20 00:51:47;;;;;;;19.70;13.40;;;;;;;-0.91;98.83;98851.37;449357;1253;145084;-66
2023/01/20 01:01:53;;;;;;;22.30;13.90;;;;;;;-0.89;98.53;98859.77;446685;1251;142883;-66
2023/01/20 01:11:59;;;;;;;19.90;13.20;;;;;;;-0.95;98.31;98858.21;449868;1252;143117;-66
2023/01/20 01:22:05;;;;;;;21.00;13.80;;;;;;;-0.99;97.99;98859.00;439406;1251;142967;-65
2023/01/20 01:32:11;;;;;;;15.70;10.80;;;;;;;-1.03;98.01;98858.25;437268;1255;144296;-65
2023/01/20 01:42:19;;;;;;;17.50;12.10;;;;;;;-1.12;97.73;98865.20;433825;1257;145730;-65
2023/01/20 01:52:25;;;;;;;21.70;14.70;;;;;;;-1.27;97.54;98866.13;446436;1251;200627;-66
2023/01/20 02:02:32;;;;;;;19.60;14.40;;;;;;;-1.39;97.42;98854.27;442711;1251;144610;-66
2023/01/20 02:12:36;;;;;;;;;;;;;;;-1.53;97.55;98837.63;449663;1251;145895;-65
2023/01/20 02:22:48;;;;;;;20.50;13.00;;;;;;;-1.74;97.48;98862.04;446747;1251;130023;-67
2023/01/20 02:32:58;;;;;;;23.50;16.30;;;;;;;-1.98;97.14;98876.17;448037;1251;144246;-65
2023/01/20 02:43:11;;;;;;;21.40;15.20;;;;;;;-2.29;97.35;98905.88;449500;1250;202208;-65
2023/01/20 02:53:21;;;;;;;23.50;15.30;;;;;;;-2.62;97.52;98924.41;450338;1251;143560;-65
2023/01/20 03:03:33;;;;;;;25.30;17.40;;;;;;;-2.95;97.63;98933.63;449587;1251;143071;-65
2023/01/20 03:13:44;;;;;;;23.60;16.00;;;;;;;-3.25;98.07;98934.85;450271;1251;143569;-66
2023/01/20 03:23:56;;;;;;;26.80;17.40;;;;;;;-3.50;98.21;98944.88;446506;1251;154104;-65
2023/01/20 03:34:06;;;;;;;26.60;17.80;;;;;;;-3.76;98.67;98937.77;448968;1251;142928;-66
2023/01/20 03:44:16;;;;;;;26.70;18.40;;;;;;;-3.99;98.87;98953.52;450234;1251;144560;-66
2023/01/20 03:54:26;;;;;;;31.10;19.60;;;;;;;-4.16;99.25;98962.47;449496;1251;141915;-65
2023/01/20 04:04:36;;;;;;;27.60;18.10;;;;;;;-4.34;99.56;98969.05;450208;1251;144079;-65
2023/01/20 04:14:42;;;;;;;26.50;19.40;;;;;;;-4.49;99.71;98982.73;450235;1251;144271;-66
2023/01/20 04:24:52;;;;;;;24.30;17.50;;;;;;;-4.60;99.90;99002.68;449371;1251;144454;-66
2023/01/20 04:34:58;;;;;;;30.00;19.50;;;;;;;-4.69;99.98;99032.52;450245;1251;145626;-66
2023/01/20 04:45:03;;;;;;;;;;;;;;;-4.73;100.00;99043.81;450265;1250;142658;-65
2023/01/20 04:55:10;;;;;;;46.30;30.40;;;;;;;-4.77;100.00;99040.79;443283;1251;129246;-65
2023/01/20 05:05:17;;;;;;;36.00;22.60;;;;;;;-4.83;100.00;99030.77;439745;1250;143178;-65
2023/01/20 05:15:22;;;;;;;39.90;26.30;;;;;;;-4.89;100.00;99049.62;441855;1251;167879;-66
2023/01/20 05:25:26;;;;;;;;;;;;;;;-4.99;100.00;99087.61;445653;1251;142837;-66
2023/01/20 05:35:32;;;;;;;55.80;34.30;;;;;;;-5.00;100.00;99113.55;449700;1250;129172;-66
2023/01/20 05:45:38;;;;;;;49.90;32.60;;;;;;;-4.90;100.00;99111.77;436918;1251;145036;-65
2023/01/20 05:55:44;;;;;;;57.40;35.30;;;;;;;-4.96;100.00;99125.65;436643;1251;141789;-65
2023/01/20 06:05:50;;;;;;;43.40;31.00;;;;;;;-4.96;100.00;99126.86;438168;1251;142684;-64
2023/01/20 06:15:56;;;;;;;43.70;29.60;;;;;;;-4.79;100.00;99097.33;449465;1251;142243;-65
2023/01/20 06:26:04;;;;;;;54.30;34.60;;;;;;;-4.70;100.00;99116.54;437627;1252;141870;-64
2023/01/20 06:36:12;;;;;;;62.70;38.00;;;;;;;-4.60;100.00;99112.52;450162;1251;144327;-66
2023/01/20 06:46:19;;;;;;;58.20;34.80;;;;;;;-4.50;100.00;99127.11;449586;1250;201140;-66
2023/01/20 06:56:24;;;;;;;66.30;37.90;;;;;;;-4.50;100.00;99154.11;450198;1251;143735;-66
2023/01/20 07:06:30;;;;;;;;;;;;;;;-4.39;100.00;99177.93;449577;1251;146177;-66
2023/01/20 07:16:36;;;;;;;61.30;35.60;;;;;;;-4.13;100.00;99201.61;442730;1251;129797;-66
2023/01/20 07:26:42;;;;;;;65.70;35.80;;;;;;;-3.74;100.00;99223.41;450131;1251;143559;-65
2023/01/20 07:36:47;;;;;;;53.80;32.00;;;;;;;-2.68;100.00;99216.80;447317;1250;144539;-65
2023/01/20 07:46:53;;;;;;;48.00;30.50;;;;;;;-0.91;100.00;99222.55;450326;1251;144078;-66
2023/01/20 07:56:59;;;;;;;48.50;32.30;;;;;;;0.52;100.00;99240.90;450343;1251;143476;-66
2023/01/20 08:07:05;;;;;;;47.00;31.60;;;;;;;2.65;100.00;99232.81;449550;1252;144012;-66
2023/01/20 08:17:11;;;;;;;39.80;30.60;;;;;;;4.63;98.08;99250.46;450379;1251;142253;-66
2023/01/20 08:27:17;;;;;;;45.50;33.70;;;;;;;6.32;94.54;99272.00;445213;1251;143371;-65
2023/01/20 08:37:23;;;;;;;43.20;32.50;;;;;;;8.09;91.31;99258.67;448273;1250;197552;-66
2023/01/20 08:47:29;;;;;;;43.70;31.50;;;;;;;9.08;87.84;99264.44;439676;1251;143148;-67
2023/01/20 08:57:35;;;;;;;33.90;26.50;;;;;;;8.82;85.41;99278.23;438520;1251;142942;-65
2023/01/20 09:07:41;;;;;;;32.20;26.70;;;;;;;8.88;82.66;99275.47;450325;1251;141533;-66
2023/01/20 09:17:46;;;;;;;33.80;27.50;;;;;;;9.12;81.12;99280.35;450349;1251;141273;-65
2023/01/20 09:27:52;;;;;;;36.30;28.10;;;;;;;10.63;78.50;99288.98;448860;1251;141998;-66
2023/01/20 09:59:01;;;;;;;33.70;27.00;;;;;;;6.85;73.42;99322.35;445906;1251;143235;-64
2023/01/20 10:09:16;;;;;;;38.70;29.50;;;;;;;4.83;75.47;99320.52;450304;1251;142237;-65
2023/01/20 10:19:33;;;;;;;32.40;23.60;;;;;;;4.44;76.80;99318.06;442376;1250;141787;-65
2023/01/20 10:29:44;;;;;;;32.20;24.20;;;;;;;4.35;76.67;99316.38;450246;1250;142822;-65
2023/01/20 10:39:54;;;;;;;22.20;15.80;;;;;;;4.00;76.90;99314.52;449479;1251;143351;-66
2023/01/20 10:50:22;;;;;;;29.10;18.80;;;;;;;3.42;76.38;99324.79;441745;1251;142996;-64
2023/01/20 11:00:30;;;;;;;33.90;21.30;;;;;;;2.77;77.24;99319.05;449213;1250;142676;-65
2023/01/20 11:10:36;;;;;;;23.30;16.20;;;;;;;2.44;77.83;99318.13;446938;1251;142299;-65
2023/01/20 11:20:45;;;;;;;20.40;15.90;;;;;;;2.35;78.19;99311.55;450306;1251;142905;-65
2023/01/20 11:30:54;;;;;;;19.30;12.90;;;;;;;2.28;78.26;99306.10;447750;1254;142909;-65
2023/01/20 11:41:00;;;;;;;16.90;11.90;;;;;;;2.17;78.70;99318.37;450048;1251;143053;-65
2023/01/20 11:51:18;;;;;;;17.80;11.60;;;;;;;1.98;78.32;99336.59;448299;1252;141823;-66
2023/01/20 12:01:28;;;;;;;16.40;11.70;;;;;;;1.71;78.95;99346.41;447312;1252;198738;-65
2023/01/20 12:11:40;;;;;;;15.60;11.10;;;;;;;1.39;79.54;99365.69;448015;1251;144924;-65
2023/01/20 12:21:51;;;;;;;15.80;9.40;;;;;;;1.15;80.43;99364.65;447066;1252;143228;-65
2023/01/20 12:31:59;;;;;;;12.80;8.40;;;;;;;1.01;80.78;99354.02;450303;1251;141912;-66
2023/01/20 12:42:43;;;;;;;11.70;8.00;;;;;;;0.89;81.15;99350.56;450359;1252;144633;-66
2023/01/20 12:53:09;;;;;;;11.00;7.40;;;;;;;0.75;81.28;99358.54;448394;1251;338364;-65
2023/01/20 13:03:42;;;;;;;12.90;10.10;;;;;;;0.52;81.45;99354.14;448422;1252;142133;-66
2023/01/20 13:14:06;;;;;;;17.00;9.90;;;;;;;0.31;81.88;99368.13;450174;1253;349547;-65
2023/01/20 13:24:23;;;;;;;13.80;10.50;;;;;;;0.12;82.37;99371.15;443877;1250;143702;-65
2023/01/20 13:34:39;;;;;;;19.50;12.50;;;;;;;-0.08;82.79;99385.08;449892;1252;197604;-65
2023/01/20 13:44:45;;;;;;;21.10;14.30;;;;;;;-0.21;83.59;99384.14;446479;1252;148405;-65
2023/01/20 13:54:51;;;;;;;21.10;14.70;;;;;;;-0.34;84.18;99399.79;449685;1251;144231;-65
2023/01/20 14:04:57;;;;;;;26.10;15.90;;;;;;;-0.56;85.08;99400.77;450458;1251;143331;-65
2023/01/20 14:15:03;;;;;;;23.50;15.40;;;;;;;-0.71;85.61;99408.98;450284;1252;142899;-65
2023/01/20 14:25:22;;;;;;;25.20;15.50;;;;;;;-0.75;85.68;99433.64;440241;1251;143966;-65
2023/01/20 14:35:31;;;;;;;31.00;18.50;;;;;;;-0.85;86.27;99442.60;450363;1251;144379;-65
2023/01/20 14:45:38;;;;;;;31.00;19.80;;;;;;;-0.86;86.84;99450.88;444727;1252;144552;-64
2023/01/20 14:56:03;;;;;;;38.30;23.90;;;;;;;-0.87;87.47;99459.65;436621;1255;142033;-65
2023/01/20 15:06:20;;;;;;;39.30;22.90;;;;;;;-0.88;87.83;99475.14;450406;1251;143850;-65
2023/01/20 15:16:28;;;;;;;48.90;29.20;;;;;;;-0.94;88.35;99488.30;440912;1254;195602;-65
2023/01/20 15:26:38;;;;;;;51.20;29.60;;;;;;;-1.06;88.72;99498.66;442585;1255;146056;-64
2023/01/20 15:36:45;;;;;;;49.10;27.50;;;;;;;-1.16;89.35;99503.13;449514;1252;145821;-64
2023/01/20 15:46:51;;;;;;;52.20;31.80;;;;;;;-1.24;89.53;99508.77;450329;1251;144741;-64
2023/01/20 15:57:01;;;;;;;56.00;32.40;;;;;;;-1.33;90.06;99522.13;440776;1254;143555;-65
2023/01/20 16:07:09;;;;;;;55.10;32.60;;;;;;;-1.39;90.75;99523.45;437481;1251;143125;-65
2023/01/20 16:17:17;;;;;;;69.70;41.30;;;;;;;-1.46;91.30;99515.81;439016;1251;142785;-64
2023/01/20 16:27:24;;;;;;;57.00;30.20;;;;;;;-1.50;91.61;99517.25;436132;1255;143356;-64
2023/01/20 16:37:29;;;;;;;57.20;31.40;;;;;;;-1.48;92.19;99512.60;449854;1252;199042;-64
2023/01/20 16:47:35;;;;;;;62.10;31.10;;;;;;;-1.47;92.60;99508.11;436982;1252;143785;-65
2023/01/20 16:57:42;;;;;;;53.30;30.10;;;;;;;-1.47;92.83;99502.44;440641;1255;142483;-64
2023/01/20 17:07:46;;;;;;;;;;;;;;;-1.44;93.29;99512.70;440869;1253;183168;-64
2023/01/20 17:17:54;;;;;;;62.80;37.70;;;;;;;-1.45;93.86;99522.85;443658;1251;133206;-64
2023/01/20 17:28:00;;;;;;;61.30;35.30;;;;;;;-1.45;94.03;99527.98;437926;1255;142724;-65
2023/01/20 17:38:06;;;;;;;68.80;38.60;;;;;;;-1.46;94.25;99540.03;441563;1255;142846;-64
2023/01/20 17:48:12;;;;;;;63.40;38.50;;;;;;;-1.45;94.50;99552.90;450343;1251;142654;-64
2023/01/20 17:58:18;;;;;;;59.30;33.60;;;;;;;-1.40;94.96;99577.55;446376;1255;148035;-64
2023/01/20 18:08:22;;;;;;;;;;;;;;;-1.36;94.87;99589.00;450178;1251;142893;-65
2023/01/20 18:18:28;;;;;;;61.60;34.60;;;;;;;-1.30;95.35;99598.35;449806;1251;129575;-64
2023/01/20 18:28:35;;;;;;;54.30;33.80;;;;;;;-1.25;95.37;99601.55;450198;1255;143999;-63
2023/01/20 18:38:42;;;;;;;55.20;34.20;;;;;;;-1.24;95.51;99605.82;450173;1250;186146;-63
2023/01/20 18:48:50;;;;;;;53.30;33.50;;;;;;;-1.28;95.39;99603.65;445991;1251;146543;-63
2023/01/20 18:58:57;;;;;;;55.30;32.90;;;;;;;-1.31;95.73;99600.44;446101;1251;145235;-64
2023/01/20 19:09:04;;;;;;;51.10;30.60;;;;;;;-1.34;95.90;99603.39;450210;1251;142788;-64
2023/01/20 19:19:11;;;;;;;36.70;22.90;;;;;;;-1.32;96.36;99598.55;440826;1251;145228;-63
2023/01/20 19:29:17;;;;;;;48.50;27.40;;;;;;;-1.28;96.94;99596.24;450046;1251;144876;-64
2023/01/20 19:39:22;;;;;;;;;;;;;;;-1.25;97.00;99589.51;441924;1251;160511;-64
2023/01/20 19:49:28;;;;;;;43.60;23.50;;;;;;;-1.22;97.27;99586.89;450393;1251;130189;-64
2023/01/20 19:59:34;;;;;;;44.90;26.60;;;;;;;-1.20;97.62;99568.84;443996;1251;142598;-63
2023/01/20 20:09:40;;;;;;;44.00;23.40;;;;;;;-1.19;97.87;99558.34;448274;1251;143725;-64
2023/01/20 20:19:47;;;;;;;43.10;25.60;;;;;;;-1.22;98.34;99552.37;450180;1251;143216;-63
2023/01/20 20:29:55;;;;;;;37.90;24.10;;;;;;;-1.21;98.43;99551.32;450137;1251;141941;-64
2023/01/20 20:40:01;;;;;;;40.90;22.80;;;;;;;-1.21;99.03;99561.80;449343;1251;142870;-64
2023/01/20 20:50:08;;;;;;;40.10;24.70;;;;;;;-1.17;99.02;99566.71;450126;1251;144936;-65
2023/01/20 21:00:16;;;;;;;27.80;16.70;;;;;;;-1.12;99.43;99569.56;449774;1250;143214;-64
2023/01/20 21:10:22;;;;;;;17.70;11.80;;;;;;;-1.05;99.55;99569.95;439010;1251;197533;-64
2023/01/20 21:20:31;;;;;;;16.60;11.30;;;;;;;-0.95;99.24;99573.91;444870;1251;142680;-65
2023/01/20 21:30:37;;;;;;;19.00;11.70;;;;;;;-0.87;99.00;99560.89;449278;1251;146381;-64
2023/01/20 21:40:58;;;;;;;21.80;14.30;;;;;;;-0.79;98.77;99559.88;450064;1251;143558;-64
2023/01/20 22:01:28;;;;;;;21.20;14.90;;;;;;;-0.73;99.29;99551.19;434063;1255;142947;-65
2023/01/20 22:11:34;;;;;;;22.60;14.90;;;;;;;-0.79;99.23;99538.73;433540;1253;147560;-64
2023/01/20 22:21:40;;;;;;;15.80;11.70;;;;;;;-0.88;99.56;99533.22;438209;1251;145000;-64
2023/01/20 22:31:46;;;;;;;17.70;11.70;;;;;;;-0.92;99.52;99520.08;450162;1251;145589;-64
2023/01/20 22:41:52;;;;;;;16.70;10.50;;;;;;;-0.91;99.57;99507.86;450281;1251;142769;-64
2023/01/20 22:51:58;;;;;;;16.00;9.90;;;;;;;-0.92;99.68;99486.39;447095;1252;143839;-64
2023/01/20 23:02:04;;;;;;;13.00;8.70;;;;;;;-0.98;99.73;99464.50;450258;1251;144680;-63
2023/01/20 23:12:10;;;;;;;13.20;8.90;;;;;;;-1.01;99.69;99462.66;444543;1251;143625;-64
2023/01/20 23:22:17;;;;;;;14.80;9.10;;;;;;;-1.01;99.62;99463.52;449348;1251;143772;-65
2023/01/20 23:32:22;;;;;;;12.80;8.80;;;;;;;-1.04;99.80;99460.81;448272;1251;142294;-64
2023/01/20 23:42:28;;;;;;;12.40;8.60;;;;;;;-1.05;99.43;99458.61;439988;1251;142959;-64
2023/01/20 23:52:34;;;;;;;13.40;9.10;;;;;;;-1.11;99.56;99470.58;444237;1251;141743;-65
